Terminal Aerodrome Forecast
Issued by NWS Grand Forks, ND

Home | Current Version | Previous Version | Graphics & Text | Print | Product List | Glossary On
Versions: 1 2 3 4 5 6 7 8 9 10 11 12 13 14 15 16 17 18 19 20 21 22 23
000
FTUS43 KFGF 190500
TAFFAR
TAF
KFAR 190520Z 1906/2006 VRB03KT P6SM SKC
      TEMPO 1909/1913 2SM BR
     FM191600 VRB05KT P6SM SCT040
     FM200100 VRB05KT P6SM SKC=

USA.gov is the U.S. government's official web portal to all federal, state and local government web resources and services.